createdAt,value
2024-02-07T00:00:31.673Z,1.48
2024-02-07T00:02:58.736Z,1.70
2024-02-07T00:05:25.789Z,2.13
2024-02-07T00:07:52.701Z,1.77
2024-02-07T00:10:19.672Z,1.45
2024-02-07T00:12:46.476Z,1.48
2024-02-07T00:15:13.352Z,1.25
2024-02-07T00:17:40.135Z,1.52
2024-02-07T00:20:07.665Z,1.98
2024-02-07T00:22:35.090Z,1.15
2024-02-07T00:25:02.099Z,1.25
2024-02-07T00:27:29.063Z,1.42
2024-02-07T00:29:55.842Z,1.35
2024-02-07T00:32:22.648Z,1.33
2024-02-07T00:34:50.966Z,1.88
2024-02-07T00:37:18.064Z,1.35
2024-02-07T00:39:45.598Z,1.90
2024-02-07T00:42:12.393Z,1.50
2024-02-07T00:44:40.601Z,1.73
2024-02-07T00:47:07.537Z,1.13
2024-02-07T00:49:34.386Z,1.50
2024-02-07T00:52:01.188Z,1.60
2024-02-07T00:54:29.076Z,2.08
2024-02-07T00:56:56.754Z,1.92
2024-02-07T00:59:23.808Z,1.98
2024-02-07T01:01:51.323Z,1.95
2024-02-07T01:04:19.522Z,2.20
2024-02-07T01:07:11.535Z,1.60
2024-02-07T01:09:38.450Z,1.52
2024-02-07T01:12:05.597Z,1.92
2024-02-07T01:14:32.713Z,1.60
2024-02-07T01:16:59.703Z,2.70
2024-02-07T01:19:26.732Z,1.50
2024-02-07T01:21:53.624Z,2.50
2024-02-07T01:24:20.576Z,1.63
2024-02-07T01:26:48.399Z,1.60
2024-02-07T01:30:08.209Z,1.77
2024-02-07T01:32:35.194Z,1.80
2024-02-07T01:35:02.085Z,1.13
2024-02-07T01:37:28.981Z,1.55
2024-02-07T01:39:55.830Z,2.90
2024-02-07T01:42:22.817Z,1.40
2024-02-07T01:44:49.755Z,1.58
2024-02-07T01:47:16.687Z,1.60
2024-02-07T01:49:53.641Z,1.63
2024-02-07T01:52:23.308Z,1.55
2024-02-07T01:54:51.400Z,1.30
2024-02-07T01:57:18.574Z,2.70
2024-02-07T01:59:46.509Z,1.65
2024-02-07T02:02:13.698Z,1.73
2024-02-07T02:04:41.457Z,1.65
2024-02-07T02:07:08.540Z,1.15
2024-02-07T02:09:35.406Z,1.70
2024-02-07T02:12:03.643Z,2.72
2024-02-07T02:14:30.612Z,1.00
2024-02-07T02:16:57.400Z,1.05
2024-02-07T02:19:24.359Z,1.33
2024-02-07T02:22:25.071Z,1.80
2024-02-07T02:25:01.731Z,1.60
2024-02-07T02:27:52.886Z,1.73
2024-02-07T02:30:34.343Z,1.50
2024-02-07T02:33:09.936Z,1.20
2024-02-07T02:35:39.498Z,1.80
2024-02-07T02:38:06.377Z,1.70
2024-02-07T02:40:33.411Z,1.50
2024-02-07T02:43:00.421Z,1.65
2024-02-07T02:45:27.479Z,1.77
2024-02-07T02:47:55.410Z,1.67
2024-02-07T02:50:26.981Z,1.73
2024-02-07T02:52:54.149Z,1.45
2024-02-07T02:55:20.936Z,1.50
2024-02-07T02:57:48.325Z,2.03
2024-02-07T03:00:16.180Z,1.83
2024-02-07T03:02:44.713Z,1.80
2024-02-07T03:05:30.589Z,2.40
2024-02-07T03:08:06.696Z,1.50
2024-02-07T03:10:35.144Z,1.75
2024-02-07T03:13:02.147Z,1.83
2024-02-07T03:15:29.685Z,1.55
2024-02-07T03:17:56.573Z,2.03
2024-02-07T03:20:24.564Z,1.98
2024-02-07T03:22:52.493Z,2.17
2024-02-07T03:25:22.239Z,2.17
2024-02-07T03:27:52.107Z,2.10
2024-02-07T03:30:23.374Z,1.48
2024-02-07T03:32:52.219Z,1.67
2024-02-07T03:35:22.050Z,1.95
2024-02-07T03:37:49.665Z,2.28
2024-02-07T03:40:16.713Z,1.63
2024-02-07T03:42:44.832Z,1.40
2024-02-07T03:45:18.463Z,1.42
2024-02-07T03:47:45.631Z,1.67
2024-02-07T03:50:13.418Z,1.75
2024-02-07T03:52:43.691Z,2.00
2024-02-07T03:55:11.889Z,1.42
2024-02-07T03:57:39.260Z,1.58
2024-02-07T04:00:09.638Z,1.92
2024-02-07T04:02:40.810Z,1.60
2024-02-07T04:05:12.607Z,1.80
2024-02-07T04:07:40.402Z,1.73
2024-02-07T04:10:11.101Z,1.98
2024-02-07T04:12:41.661Z,1.73
2024-02-07T04:15:27.846Z,2.22
2024-02-07T04:18:17.981Z,1.70
2024-02-07T04:21:11.211Z,2.20
2024-02-07T04:23:57.424Z,2.25
2024-02-07T04:26:47.475Z,1.80
2024-02-07T04:29:33.409Z,1.60
2024-02-07T04:32:19.183Z,2.15
2024-02-07T04:35:05.183Z,1.67
2024-02-07T04:37:50.684Z,1.55
2024-02-07T04:40:36.155Z,1.60
2024-02-07T04:43:21.885Z,1.40
2024-02-07T04:46:07.473Z,1.92
2024-02-07T04:48:53.187Z,1.42
2024-02-07T04:51:38.509Z,1.95
2024-02-07T04:54:23.918Z,2.40
2024-02-07T04:57:09.302Z,1.90
2024-02-07T04:59:54.882Z,1.83
2024-02-07T05:02:40.441Z,2.38
2024-02-07T05:05:25.807Z,2.28
2024-02-07T05:08:11.235Z,2.10
2024-02-07T05:10:56.589Z,2.00
2024-02-07T05:13:42.034Z,1.85
2024-02-07T05:16:13.197Z,1.98
2024-02-07T05:18:40.668Z,2.42
2024-02-07T05:21:14.610Z,2.42
2024-02-07T05:23:41.955Z,2.03
2024-02-07T05:26:13.205Z,2.00
2024-02-07T05:28:41.722Z,2.42
2024-02-07T05:31:08.529Z,1.90
2024-02-07T05:33:35.488Z,2.78
2024-02-07T05:36:02.345Z,2.55
2024-02-07T05:38:29.070Z,2.13
2024-02-07T05:40:56.814Z,2.55
2024-02-07T05:43:23.916Z,2.65
2024-02-07T05:45:51.131Z,2.80
2024-02-07T05:48:17.998Z,2.17
2024-02-07T05:50:46.303Z,2.30
2024-02-07T05:53:13.072Z,2.53
2024-02-07T05:55:39.874Z,2.60
2024-02-07T05:58:06.725Z,2.70
2024-02-07T06:00:33.673Z,3.45
2024-02-07T06:03:01.943Z,2.28
2024-02-07T06:05:30.123Z,2.70
2024-02-07T06:07:57.073Z,2.38
2024-02-07T06:10:23.984Z,3.25
2024-02-07T06:12:50.697Z,2.38
2024-02-07T06:15:17.428Z,2.80
2024-02-07T06:17:44.226Z,3.28
2024-02-07T06:20:11.619Z,3.47
2024-02-07T06:22:38.954Z,3.08
2024-02-07T06:25:06.153Z,2.92
2024-02-07T06:27:32.872Z,2.75
2024-02-07T06:29:59.593Z,2.92
2024-02-07T06:32:26.693Z,3.50
2024-02-07T06:34:53.569Z,9.32
2024-02-07T06:37:20.606Z,6.90
2024-02-07T06:39:47.326Z,7.18
2024-02-07T06:42:14.081Z,4.00
2024-02-07T06:44:40.920Z,3.70
2024-02-07T06:47:07.632Z,3.28
2024-02-07T06:49:37.958Z,3.58
2024-02-07T06:52:05.849Z,4.07
2024-02-07T06:54:32.814Z,3.67
2024-02-07T06:56:59.714Z,3.25
2024-02-07T06:59:26.593Z,3.60
2024-02-07T07:01:53.512Z,2.53
2024-02-07T07:04:20.300Z,3.10
2024-02-07T07:06:47.100Z,3.00
2024-02-07T07:09:13.889Z,4.28
2024-02-07T07:11:40.633Z,8.88
2024-02-07T07:14:08.488Z,9.18
2024-02-07T07:16:35.343Z,5.72
2024-02-07T07:19:03.128Z,3.75
2024-02-07T07:21:31.703Z,3.72
2024-02-07T07:23:59.514Z,3.65
2024-02-07T07:26:26.695Z,3.33
2024-02-07T07:28:55.709Z,2.50
2024-02-07T07:31:22.587Z,3.47
2024-02-07T07:33:49.408Z,4.32
2024-02-07T07:36:19.114Z,4.18
2024-02-07T07:38:47.538Z,3.65
2024-02-07T07:41:14.326Z,3.88
2024-02-07T07:43:41.140Z,3.45
2024-02-07T07:46:10.113Z,3.83
2024-02-07T07:48:37.236Z,3.47
2024-02-07T07:51:04.321Z,3.90
2024-02-07T07:53:31.036Z,3.15
2024-02-07T07:55:57.752Z,3.58
2024-02-07T07:58:29.039Z,4.03
2024-02-07T08:01:01.085Z,4.13
2024-02-07T08:03:27.776Z,4.47
2024-02-07T08:05:54.476Z,4.20
2024-02-07T08:08:21.304Z,3.10
2024-02-07T08:10:48.262Z,3.13
2024-02-07T08:13:15.091Z,2.78
2024-02-07T08:15:41.839Z,3.35
2024-02-07T08:18:09.763Z,2.50
2024-02-07T08:20:36.560Z,3.42
2024-02-07T08:23:03.392Z,3.53
2024-02-07T08:25:30.151Z,2.80
2024-02-07T08:27:56.821Z,3.08
2024-02-07T08:30:23.505Z,3.22
2024-02-07T08:32:51.303Z,3.33
2024-02-07T08:35:18.372Z,3.28
2024-02-07T08:37:48.618Z,3.88
2024-02-07T08:40:16.382Z,3.00
2024-02-07T08:42:43.311Z,4.13
2024-02-07T08:45:11.528Z,3.83
2024-02-07T08:47:38.318Z,3.75
2024-02-07T08:50:05.702Z,3.92
2024-02-07T08:52:32.503Z,2.92
2024-02-07T08:55:00.186Z,3.85
2024-02-07T08:57:34.999Z,4.43
2024-02-07T09:00:08.131Z,3.10
2024-02-07T09:02:37.448Z,3.40
2024-02-07T09:05:07.527Z,2.92
2024-02-07T09:07:35.439Z,2.67
2024-02-07T09:10:04.536Z,3.17
2024-02-07T09:12:31.311Z,2.78
2024-02-07T09:14:58.278Z,3.03
2024-02-07T09:17:26.385Z,3.30
2024-02-07T09:19:54.306Z,3.78
2024-02-07T09:22:21.096Z,3.08
2024-02-07T09:24:47.992Z,3.45
2024-02-07T09:27:14.849Z,4.28
2024-02-07T09:29:41.528Z,3.35
2024-02-07T09:32:08.342Z,2.75
2024-02-07T09:34:35.279Z,3.08
2024-02-07T09:37:02.902Z,2.60
2024-02-07T09:39:29.637Z,2.83
2024-02-07T09:42:00.222Z,3.03
2024-02-07T09:44:31.934Z,2.50
2024-02-07T09:47:01.621Z,3.13
2024-02-07T09:49:29.633Z,3.22
2024-02-07T09:51:57.196Z,2.33
2024-02-07T09:54:24.643Z,3.67
2024-02-07T09:56:53.332Z,3.13
2024-02-07T09:59:21.429Z,3.13
2024-02-07T10:01:49.093Z,3.22
2024-02-07T10:04:25.062Z,3.15
2024-02-07T10:06:53.644Z,3.85
2024-02-07T10:09:21.761Z,2.80
2024-02-07T10:11:49.838Z,2.80
2024-02-07T10:14:18.317Z,3.17
2024-02-07T10:16:46.129Z,2.47
2024-02-07T10:19:13.419Z,2.75
2024-02-07T10:21:40.272Z,2.58
2024-02-07T10:24:07.852Z,2.95
2024-02-07T10:26:34.809Z,3.85
2024-02-07T10:29:03.090Z,2.53
2024-02-07T10:31:30.199Z,3.63
2024-02-07T10:34:00.452Z,2.10
2024-02-07T10:36:27.628Z,2.83
2024-02-07T10:39:02.865Z,2.88
2024-02-07T10:41:30.004Z,2.83
2024-02-07T10:44:10.714Z,2.88
2024-02-07T10:46:37.772Z,2.42
2024-02-07T10:49:04.876Z,2.78
2024-02-07T10:51:32.949Z,2.17
2024-02-07T10:54:06.210Z,2.58
2024-02-07T10:56:36.498Z,3.15
2024-02-07T10:59:05.163Z,2.20
2024-02-07T11:01:33.254Z,3.38
2024-02-07T11:04:01.178Z,2.70
2024-02-07T11:06:29.313Z,2.08
2024-02-07T11:08:57.933Z,3.38
2024-02-07T11:11:26.690Z,2.63
2024-02-07T11:13:54.255Z,2.90
2024-02-07T11:16:21.795Z,1.90
2024-02-07T11:18:48.833Z,2.33
2024-02-07T11:21:22.013Z,2.40
2024-02-07T11:23:50.935Z,3.13
2024-02-07T11:26:19.232Z,2.20
2024-02-07T11:28:47.854Z,2.72
2024-02-07T11:31:17.999Z,2.97
2024-02-07T11:33:48.653Z,2.35
2024-02-07T11:36:17.468Z,2.25
2024-02-07T11:38:57.188Z,2.45
2024-02-07T11:41:25.206Z,2.50
2024-02-07T11:43:56.059Z,2.10
2024-02-07T11:46:24.452Z,2.20
2024-02-07T11:48:53.687Z,2.83
2024-02-07T11:51:24.821Z,3.70
2024-02-07T11:53:59.892Z,2.65
2024-02-07T11:56:27.602Z,2.60
2024-02-07T11:58:55.143Z,2.28
2024-02-07T12:01:27.543Z,2.70
2024-02-07T12:03:58.742Z,2.72
2024-02-07T12:06:26.145Z,2.60
2024-02-07T12:08:53.999Z,2.28
2024-02-07T12:11:20.908Z,1.73
2024-02-07T12:13:47.806Z,1.92
2024-02-07T12:16:17.808Z,2.13
2024-02-07T12:18:45.697Z,3.45
2024-02-07T12:21:12.845Z,2.60
2024-02-07T12:23:39.848Z,2.83
2024-02-07T12:26:06.839Z,2.03
2024-02-07T12:28:34.278Z,2.00
2024-02-07T12:31:02.065Z,2.97
2024-02-07T12:33:29.394Z,2.22
2024-02-07T12:36:04.235Z,1.75
2024-02-07T12:38:31.946Z,1.88
2024-02-07T12:41:00.157Z,2.10
2024-02-07T12:43:27.947Z,2.80
2024-02-07T12:45:59.631Z,2.10
2024-02-07T12:48:27.127Z,3.00
2024-02-07T12:50:55.866Z,2.38
2024-02-07T12:53:23.783Z,2.10
2024-02-07T12:55:51.164Z,1.83
2024-02-07T12:58:18.302Z,1.98
2024-02-07T13:00:47.547Z,2.05
2024-02-07T13:03:15.082Z,2.33
2024-02-07T13:05:42.322Z,2.70
2024-02-07T13:08:13.383Z,2.97
2024-02-07T13:10:50.780Z,2.83
2024-02-07T13:13:18.931Z,2.22
2024-02-07T13:15:45.734Z,2.35
2024-02-07T13:18:12.714Z,2.65
2024-02-07T13:20:39.974Z,1.83
2024-02-07T13:23:06.955Z,2.60
2024-02-07T13:25:34.008Z,2.30
2024-02-07T13:28:01.736Z,2.65
2024-02-07T13:30:28.581Z,2.47
2024-02-07T13:32:55.389Z,2.20
2024-02-07T13:35:22.241Z,1.75
2024-02-07T13:37:49.371Z,2.42
2024-02-07T13:40:17.053Z,2.47
2024-02-07T13:42:44.463Z,2.35
2024-02-07T13:45:11.255Z,2.22
2024-02-07T13:47:38.134Z,2.17
2024-02-07T13:50:05.448Z,1.80
2024-02-07T13:52:32.578Z,2.40
2024-02-07T13:54:59.427Z,3.00
2024-02-07T13:57:26.122Z,2.35
2024-02-07T13:59:52.893Z,1.98
2024-02-07T14:02:19.992Z,2.47
2024-02-07T14:04:46.870Z,2.45
2024-02-07T14:07:13.793Z,1.83
2024-02-07T14:09:40.930Z,3.55
2024-02-07T14:12:08.054Z,1.88
2024-02-07T14:14:36.248Z,2.38
2024-02-07T14:17:03.066Z,2.53
2024-02-07T14:19:30.074Z,2.58
2024-02-07T14:21:56.884Z,2.00
2024-02-07T14:24:23.633Z,2.35
2024-02-07T14:26:50.354Z,2.10
2024-02-07T14:29:17.037Z,2.45
2024-02-07T14:31:45.075Z,2.55
2024-02-07T14:34:15.844Z,1.60
2024-02-07T14:36:43.228Z,2.10
2024-02-07T14:39:10.082Z,2.15
2024-02-07T14:41:36.858Z,2.40
2024-02-07T14:44:03.656Z,1.60
2024-02-07T14:46:30.657Z,2.78
2024-02-07T14:48:57.448Z,1.63
2024-02-07T14:51:24.314Z,2.75
2024-02-07T14:53:51.163Z,2.28
2024-02-07T14:56:18.064Z,2.10
2024-02-07T14:58:44.798Z,1.90
2024-02-07T15:01:11.548Z,1.92
2024-02-07T15:03:41.979Z,2.15
2024-02-07T15:06:09.975Z,1.73
2024-02-07T15:08:37.035Z,1.98
2024-02-07T15:11:05.491Z,1.95
2024-02-07T15:13:32.478Z,1.50
2024-02-07T15:15:59.358Z,1.65
2024-02-07T15:18:26.420Z,1.65
2024-02-07T15:20:53.153Z,1.70
2024-02-07T15:23:19.900Z,1.98
2024-02-07T15:25:51.128Z,2.00
2024-02-07T15:28:19.504Z,1.55
2024-02-07T15:30:47.752Z,2.22
2024-02-07T15:33:14.968Z,1.60
2024-02-07T15:35:42.130Z,1.88
2024-02-07T15:38:08.991Z,2.17
2024-02-07T15:40:35.944Z,2.40
2024-02-07T15:43:02.802Z,1.70
2024-02-07T15:45:29.550Z,1.80
2024-02-07T15:47:56.623Z,1.95
2024-02-07T15:50:23.571Z,1.95
2024-02-07T15:52:50.578Z,2.13
2024-02-07T15:55:17.590Z,1.60
2024-02-07T15:57:44.404Z,1.80
2024-02-07T16:00:11.523Z,1.98
2024-02-07T16:02:41.591Z,2.05
2024-02-07T16:05:09.273Z,1.88
2024-02-07T16:07:36.456Z,2.08
2024-02-07T16:10:07.446Z,2.28
2024-02-07T16:12:34.197Z,1.83
2024-02-07T16:15:04.606Z,1.88
2024-02-07T16:17:34.286Z,1.75
2024-02-07T16:20:02.100Z,2.15
2024-02-07T16:22:29.100Z,1.75
2024-02-07T16:24:55.885Z,2.33
2024-02-07T16:27:22.647Z,1.95
2024-02-07T16:29:49.364Z,2.30
2024-02-07T16:32:16.110Z,2.30
2024-02-07T16:34:44.256Z,1.80
2024-02-07T16:37:23.615Z,2.50
2024-02-07T16:39:52.795Z,1.90
2024-02-07T16:42:19.818Z,2.00
2024-02-07T16:45:02.231Z,1.75
2024-02-07T16:47:47.397Z,1.90
2024-02-07T16:50:20.498Z,2.15
2024-02-07T16:52:54.524Z,4.72
2024-02-07T16:55:30.885Z,4.30
2024-02-07T16:57:58.933Z,3.05
2024-02-07T17:00:27.539Z,3.00
2024-02-07T17:02:55.030Z,2.25
2024-02-07T17:05:22.580Z,1.70
2024-02-07T17:07:51.370Z,2.05
2024-02-07T17:10:19.792Z,2.00
2024-02-07T17:12:47.258Z,1.70
2024-02-07T17:15:14.285Z,1.63
2024-02-07T17:17:43.550Z,2.60
2024-02-07T17:20:11.430Z,2.20
2024-02-07T17:22:38.718Z,1.80
2024-02-07T17:25:06.269Z,1.50
2024-02-07T17:27:34.494Z,1.55
2024-02-07T17:30:04.519Z,1.90
2024-02-07T17:32:34.287Z,1.63
2024-02-07T17:35:03.457Z,1.95
2024-02-07T17:37:31.836Z,1.90
2024-02-07T17:40:01.474Z,2.03
2024-02-07T17:42:32.163Z,2.08
2024-02-07T17:45:00.094Z,2.05
2024-02-07T17:47:28.885Z,1.50
2024-02-07T17:49:56.189Z,2.05
2024-02-07T17:52:24.908Z,2.30
2024-02-07T17:54:52.791Z,1.58
2024-02-07T17:57:20.326Z,2.65
2024-02-07T17:59:48.342Z,2.20
2024-02-07T18:02:15.397Z,2.20
2024-02-07T18:04:42.420Z,2.30
2024-02-07T18:07:10.296Z,2.38
2024-02-07T18:09:37.240Z,2.25
2024-02-07T18:12:05.726Z,2.83
2024-02-07T18:14:32.726Z,2.10
2024-02-07T18:16:59.619Z,2.13
2024-02-07T18:19:26.780Z,1.85
2024-02-07T18:21:53.809Z,2.20
2024-02-07T18:24:20.748Z,3.40
2024-02-07T18:26:48.379Z,3.10
2024-02-07T18:29:15.928Z,3.13
2024-02-07T18:31:42.726Z,2.78
2024-02-07T18:34:10.112Z,2.30
2024-02-07T18:36:38.305Z,3.17
2024-02-07T18:39:05.669Z,2.40
2024-02-07T18:41:33.544Z,2.22
2024-02-07T18:44:00.595Z,2.40
2024-02-07T18:46:27.498Z,1.95
2024-02-07T18:48:56.354Z,2.10
2024-02-07T18:51:26.602Z,1.90
2024-02-07T18:53:53.497Z,2.42
2024-02-07T18:56:20.350Z,1.92
2024-02-07T18:58:47.261Z,2.30
2024-02-07T19:01:14.504Z,2.53
2024-02-07T19:03:41.411Z,3.38
2024-02-07T19:06:09.047Z,2.30
2024-02-07T19:08:36.477Z,3.33
2024-02-07T19:11:03.622Z,2.53
2024-02-07T19:13:30.654Z,3.33
2024-02-07T19:15:57.398Z,4.22
2024-02-07T19:18:24.266Z,4.25
2024-02-07T19:20:51.069Z,3.30
2024-02-07T19:23:17.875Z,2.42
2024-02-07T19:25:44.752Z,2.65
2024-02-07T19:28:11.509Z,2.53
2024-02-07T19:30:38.249Z,2.13
2024-02-07T19:33:06.305Z,2.75
2024-02-07T19:35:33.170Z,2.95
2024-02-07T19:38:00.065Z,2.78
2024-02-07T19:40:27.356Z,3.28
2024-02-07T19:42:54.122Z,3.00
2024-02-07T19:45:20.889Z,3.03
2024-02-07T19:47:47.667Z,3.38
2024-02-07T19:50:15.791Z,2.92
2024-02-07T19:52:43.165Z,2.67
2024-02-07T19:55:10.228Z,3.33
2024-02-07T19:57:37.001Z,2.85
2024-02-07T20:00:04.104Z,2.85
2024-02-07T20:02:38.496Z,2.25
2024-02-07T20:05:05.706Z,2.20
2024-02-07T20:07:32.510Z,2.53
2024-02-07T20:10:03.988Z,2.35
2024-02-07T20:12:31.666Z,2.10
2024-02-07T20:15:00.807Z,2.92
2024-02-07T20:17:27.650Z,1.85
2024-02-07T20:19:54.534Z,2.42
2024-02-07T20:22:21.558Z,2.25
2024-02-07T20:24:48.485Z,2.25
2024-02-07T20:27:15.178Z,2.75
2024-02-07T20:29:42.293Z,4.15
2024-02-07T20:32:09.060Z,2.78
2024-02-07T20:34:39.874Z,3.03
2024-02-07T20:37:09.069Z,2.75
2024-02-07T20:39:36.052Z,2.70
2024-02-07T20:42:03.011Z,2.15
2024-02-07T20:44:30.325Z,2.75
2024-02-07T20:46:57.434Z,1.80
2024-02-07T20:49:24.402Z,2.42
2024-02-07T20:51:51.581Z,2.80
2024-02-07T20:54:18.380Z,2.22
2024-02-07T20:56:45.234Z,2.65
2024-02-07T20:59:12.032Z,3.50
2024-02-07T21:01:38.993Z,2.50
2024-02-07T21:04:05.849Z,3.00
2024-02-07T21:06:32.673Z,3.97
2024-02-07T21:09:00.309Z,3.45
2024-02-07T21:11:28.538Z,3.92
2024-02-07T21:13:55.438Z,4.05
2024-02-07T21:16:22.241Z,3.33
2024-02-07T21:18:49.281Z,4.00
2024-02-07T21:21:16.621Z,4.10
2024-02-07T21:23:43.836Z,4.60
2024-02-07T21:26:11.605Z,4.30
2024-02-07T21:28:39.116Z,4.05
2024-02-07T21:31:06.462Z,3.88
2024-02-07T21:33:33.474Z,4.93
2024-02-07T21:36:01.282Z,4.35
2024-02-07T21:38:28.139Z,3.92
2024-02-07T21:40:55.053Z,4.50
2024-02-07T21:43:21.939Z,3.33
2024-02-07T21:45:48.991Z,3.70
2024-02-07T21:48:16.008Z,4.13
2024-02-07T21:50:43.122Z,3.97
2024-02-07T21:53:10.006Z,3.53
2024-02-07T21:55:36.932Z,3.47
2024-02-07T21:58:05.011Z,4.38
2024-02-07T22:00:32.160Z,4.53
2024-02-07T22:02:58.865Z,4.00
2024-02-07T22:05:25.788Z,4.68
2024-02-07T22:07:54.534Z,6.57
2024-02-07T22:10:21.666Z,5.72
2024-02-07T22:12:48.594Z,4.68
2024-02-07T22:15:15.473Z,4.88
2024-02-07T22:17:42.314Z,6.28
2024-02-07T22:20:10.048Z,8.65
2024-02-07T22:22:37.475Z,10.63
2024-02-07T22:25:07.527Z,10.18
2024-02-07T22:27:37.872Z,8.85
2024-02-07T22:30:05.344Z,7.30
2024-02-07T22:32:32.476Z,6.90
2024-02-07T22:34:59.930Z,6.68
2024-02-07T22:37:26.884Z,7.30
2024-02-07T22:39:53.911Z,5.85
2024-02-07T22:42:20.701Z,6.45
2024-02-07T22:44:47.453Z,5.00
2024-02-07T22:47:14.350Z,5.05
2024-02-07T22:49:42.988Z,4.80
2024-02-07T22:52:10.078Z,4.50
2024-02-07T22:54:36.744Z,4.50
2024-02-07T22:57:03.874Z,5.10
2024-02-07T22:59:30.724Z,5.85
2024-02-07T23:01:57.597Z,5.60
2024-02-07T23:04:24.541Z,5.28
2024-02-07T23:06:52.723Z,5.38
2024-02-07T23:09:19.635Z,5.40
2024-02-07T23:11:46.873Z,5.50
2024-02-07T23:14:13.881Z,5.15
2024-02-07T23:16:42.330Z,5.50
2024-02-07T23:19:09.182Z,4.80
2024-02-07T23:21:37.127Z,4.40
2024-02-07T23:24:05.268Z,4.70
2024-02-07T23:26:32.118Z,5.45
2024-02-07T23:28:59.908Z,5.20
2024-02-07T23:31:26.893Z,5.78
2024-02-07T23:33:54.657Z,5.32
2024-02-07T23:36:21.665Z,5.13
2024-02-07T23:38:48.430Z,6.10
2024-02-07T23:41:15.097Z,6.47
2024-02-07T23:43:41.863Z,6.80
2024-02-07T23:46:08.611Z,6.82
2024-02-07T23:48:35.418Z,6.28
2024-02-07T23:51:02.227Z,5.90
2024-02-07T23:53:29.006Z,6.45
2024-02-07T23:55:55.787Z,5.93
2024-02-07T23:58:22.638Z,6.40
